Terminal Aerodrome Forecast
Issued by NWS Wilmington, OH

Current Version | Previous Version | Text Only | Print | Product List | Glossary Off
Versions: 1 2 3 4 5 6 7 8 9 10 11 12 13 14 15 16 17 18 19

824
FTUS41 KILN 100208 AAA
TAFDAY
TAF AMD
KDAY 100208Z 1002/1024 29013KT 3SM -SN BR FEW008 BKN013 OVC022
     FM100300 30012KT P6SM BKN020
     FM100800 27008KT P6SM SCT025 OVC200
     FM101300 23012G18KT P6SM OVC100
     FM102100 22012KT P6SM BKN050=

USA.gov is the U.S. government's official web portal to all federal, state and local government web resources and services.